CheckWX is a tool to help pilots better visualize weather data.  It is not intended as a substitute for an official pre-flight weather briefing.

12:26:19 UTC

KRNC METAR
Warren County Memorial Airport
Mc Minnville, Tennessee, USA
Current

31 mins ago

KRNC 221155Z AUTO 00000KT 5SM BR OVC035 08/08 A3016 RMK A01 P0018
Observed
Feb-22 @ 11:55 UTC
Visibility
5 SM
Flight Rules
MVFR
Conditions
Mist
Cloud Levels
  • Overcast at 3,500' AGL
Temperature
C / 46°F
Dewpoint
C / 46°F
Humidity
100%
Altimeter
30.16" Hg
Pressure
1021.32 hPa
Current Rain
0.18"
Previous

51 mins ago

KRNC 221135Z AUTO 00000KT 4SM BR BKN035 BKN048 OVC070 08/08 A3018 RMK A01
Observed
Feb-22 @ 11:35 UTC
Visibility
4 SM
Flight Rules
MVFR
Conditions
Mist
Cloud Levels
  • Broken at 3,500' AGL
  • Broken at 4,800' AGL
  • Overcast at 7,000' AGL
Temperature
C / 46°F
Dewpoint
C / 46°F
Humidity
100%
Altimeter
30.18" Hg
Pressure
1022.02 hPa
Previous

1 hour ago

KRNC 221115Z AUTO 00000KT 7SM SCT034 BKN046 OVC070 08/08 A3018 RMK A01
Observed
Feb-22 @ 11:15 UTC
Visibility
7 SM
Flight Rules
VFR
Cloud Levels
  • Scattered at 3,400' AGL
  • Broken at 4,600' AGL
  • Overcast at 7,000' AGL
Temperature
C / 46°F
Dewpoint
C / 46°F
Humidity
100%
Altimeter
30.18" Hg
Pressure
1022.02 hPa